Nsu Inspire — 3FID5 — position and weather

sailwx.info

Track history (hours):
 
Tides and Currents Weather Stations Pressure Air Temp Water Temp Dewpoint Dewpoint Depression Visibility Wind Speed Wind Dir Waves Ship Positions

Nsu Inspire

Last reported at 2014-Nov-07 11:24 UTC. Time now 2014-Nov-28 05:30 UTC.
Position N 35°13' E 139°46'.
Warning: this ship's position is 20 days out of date.

Length 330 m; draft 15.8 m.

Type: Cargo ship. MMSI: 372998000.

Date/timePositionNaut miles runAvg speedWind from/ knotsBaromVisibWave heightAir tempDewpointWater temp
2014-Nov-07 11:24N 35°13' E 139°46'1011.5
2014-Nov-07 10:33N 35°22' E 139°42'7 6.9
2014-Nov-07 09:33N 35°23' E 139°51'1 0.6
2014-Nov-07 07:30N 35°22' E 139°52'0 0.0
2014-Nov-07 06:33N 35°22' E 139°52'0 0.0
2014-Nov-07 05:33N 35°22' E 139°52'0 0.0
2014-Nov-07 04:24N 35°22' E 139°52'0 0.0
2014-Nov-07 03:33N 35°22' E 139°52'0 0.0
2014-Nov-07 01:24N 35°22' E 139°52'0 0.0
2014-Nov-07 00:12N 35°22' E 139°52'0 0.0
2014-Nov-06 23:30N 35°22' E 139°52'0 0.0
2014-Nov-06 22:33N 35°22' E 139°52'0 0.0
2014-Nov-06 21:24N 35°22' E 139°52'0 0.0
2014-Nov-06 20:30N 35°22' E 139°52'0 0.0
2014-Nov-06 19:30N 35°22' E 139°52'0 0.0
2014-Nov-06 18:30N 35°22' E 139°52'0 0.0
2014-Nov-06 17:30N 35°22' E 139°52'0 0.0
2014-Nov-06 16:33N 35°22' E 139°52'0 0.0
2014-Nov-06 15:33N 35°22' E 139°52'0 0.0
2014-Nov-06 14:33N 35°22' E 139°52'0 0.0
2014-Nov-06 13:33N 35°22' E 139°52'0 0.0
2014-Nov-06 12:33N 35°22' E 139°52'0 0.0
2014-Nov-06 11:33N 35°22' E 139°52'0 0.0
2014-Nov-06 10:33N 35°22' E 139°52'0 0.0
2014-Nov-06 09:18N 35°22' E 139°52'0 0.0
2014-Nov-06 07:15N 35°22' E 139°52'0 0.0
2014-Nov-06 05:33N 35°22' E 139°52'0 0.0
2014-Nov-06 04:30N 35°22' E 139°52'0 0.0
2014-Nov-06 03:33N 35°22' E 139°52'0 0.0
2014-Nov-06 02:18N 35°22' E 139°52'0 0.0
2014-Nov-06 01:27N 35°22' E 139°52'0 0.0
2014-Nov-05 23:33N 35°22' E 139°52'0 0.0
2014-Nov-05 22:33N 35°22' E 139°52'0 0.0
2014-Nov-05 20:30N 35°22' E 139°52'0 0.0
2014-Nov-05 17:33N 35°22' E 139°52'0 0.1
2014-Nov-05 16:33N 35°22' E 139°52'3 3.2
2014-Nov-05 15:33N 35°24' E 139°49'2 1.5
2014-Nov-05 14:31N 35°25' E 139°50'0 0.0
2014-Nov-05 13:31N 35°25' E 139°50'0 0.0
2014-Nov-05 12:31N 35°25' E 139°50'0 0.0
2014-Nov-05 11:31N 35°25' E 139°50'0 0.0
2014-Nov-05 10:28N 35°25' E 139°50'0 0.0
2014-Nov-05 09:31N 35°25' E 139°50'0 0.0
2014-Nov-05 08:31N 35°25' E 139°50'0 0.0
2014-Nov-05 07:31N 35°25' E 139°50'0 0.2
2014-Nov-05 06:31N 35°25' E 139°50'3 3.2
2014-Nov-05 05:33N 35°24' E 139°46'1010.2
2014-Nov-05 04:33N 35°14' E 139°47'  
Track history (hours):
 
Tides and Currents Weather Stations Pressure Air Temp Water Temp Dewpoint Dewpoint Depression Visibility Wind Speed Wind Dir Waves Ship Positions

Nsu Inspire

Last reported at 2014-Nov-07 11:24 UTC. Time now 2014-Nov-28 05:30 UTC.
Position N 35°13' E 139°46'.
Warning: this ship's position is 20 days out of date.

Length 330 m; draft 15.8 m.

Type: Cargo ship. MMSI: 372998000.

Date/timePositionNaut miles runAvg speedWind from/ knotsBaromVisibWave heightAir tempDewpointWater temp
2014-Nov-07 11:24N 35°13' E 139°46'1011.5
2014-Nov-07 10:33N 35°22' E 139°42'7 6.9
2014-Nov-07 09:33N 35°23' E 139°51'1 0.6
2014-Nov-07 07:30N 35°22' E 139°52'0 0.0
2014-Nov-07 06:33N 35°22' E 139°52'0 0.0
2014-Nov-07 05:33N 35°22' E 139°52'0 0.0
2014-Nov-07 04:24N 35°22' E 139°52'0 0.0
2014-Nov-07 03:33N 35°22' E 139°52'0 0.0
2014-Nov-07 01:24N 35°22' E 139°52'0 0.0
2014-Nov-07 00:12N 35°22' E 139°52'0 0.0
2014-Nov-06 23:30N 35°22' E 139°52'0 0.0
2014-Nov-06 22:33N 35°22' E 139°52'0 0.0
2014-Nov-06 21:24N 35°22' E 139°52'0 0.0
2014-Nov-06 20:30N 35°22' E 139°52'0 0.0
2014-Nov-06 19:30N 35°22' E 139°52'0 0.0
2014-Nov-06 18:30N 35°22' E 139°52'0 0.0
2014-Nov-06 17:30N 35°22' E 139°52'0 0.0
2014-Nov-06 16:33N 35°22' E 139°52'0 0.0
2014-Nov-06 15:33N 35°22' E 139°52'0 0.0
2014-Nov-06 14:33N 35°22' E 139°52'0 0.0
2014-Nov-06 13:33N 35°22' E 139°52'0 0.0
2014-Nov-06 12:33N 35°22' E 139°52'0 0.0
2014-Nov-06 11:33N 35°22' E 139°52'0 0.0
2014-Nov-06 10:33N 35°22' E 139°52'0 0.0
2014-Nov-06 09:18N 35°22' E 139°52'0 0.0
2014-Nov-06 07:15N 35°22' E 139°52'0 0.0
2014-Nov-06 05:33N 35°22' E 139°52'0 0.0
2014-Nov-06 04:30N 35°22' E 139°52'0 0.0
2014-Nov-06 03:33N 35°22' E 139°52'0 0.0
2014-Nov-06 02:18N 35°22' E 139°52'0 0.0
2014-Nov-06 01:27N 35°22' E 139°52'0 0.0
2014-Nov-05 23:33N 35°22' E 139°52'0 0.0
2014-Nov-05 22:33N 35°22' E 139°52'0 0.0
2014-Nov-05 20:30N 35°22' E 139°52'0 0.0
2014-Nov-05 17:33N 35°22' E 139°52'0 0.1
2014-Nov-05 16:33N 35°22' E 139°52'3 3.2
2014-Nov-05 15:33N 35°24' E 139°49'2 1.5
2014-Nov-05 14:31N 35°25' E 139°50'0 0.0
2014-Nov-05 13:31N 35°25' E 139°50'0 0.0
2014-Nov-05 12:31N 35°25' E 139°50'0 0.0
2014-Nov-05 11:31N 35°25' E 139°50'0 0.0
2014-Nov-05 10:28N 35°25' E 139°50'0 0.0
2014-Nov-05 09:31N 35°25' E 139°50'0 0.0
2014-Nov-05 08:31N 35°25' E 139°50'0 0.0
2014-Nov-05 07:31N 35°25' E 139°50'0 0.2
2014-Nov-05 06:31N 35°25' E 139°50'3 3.2
2014-Nov-05 05:33N 35°24' E 139°46'1010.2
2014-Nov-05 04:33N 35°14' E 139°47'  

Dump ship's entire track history